Time;durP1;ratioP1;P1;durP2;ratioP2;P2;SDS_P1;SDS_P2;PMS_P1;PMS_P2;Temp;Humidity;BMP_temperature;BMP_pressure;BME280_temperature;BME280_humidity;BME280_pressure;Samples;Min_cycle;Max_cycle;Signal;HPM_P1;HPM_P2
2023/09/24 00:01:36;;;;;;;0.20;0.20;;;;;;;22.29;70.05;100870.09;5017685;28;20036;-90
2023/09/24 00:04:02;;;;;;;0.17;0.17;;;;;;;22.41;69.95;100894.44;5033867;28;20548;-90
2023/09/24 00:06:28;;;;;;;0.20;0.20;;;;;;;22.31;70.44;100897.13;5033624;28;20041;-93
2023/09/24 00:08:53;;;;;;;0.10;0.10;;;;;;;22.22;70.37;100891.88;5017425;28;20491;-92
2023/09/24 00:11:19;;;;;;;0.20;0.20;;;;;;;22.23;70.22;100885.66;5033552;28;20396;-90
2023/09/24 00:13:46;;;;;;;0.10;0.10;;;;;;;22.25;70.23;100894.25;5033974;28;20494;-91
2023/09/24 00:16:11;;;;;;;0.20;0.20;;;;;;;22.24;70.58;100895.22;5033835;28;20525;-92
2023/09/24 00:18:37;;;;;;;0.20;0.20;;;;;;;22.02;70.88;100894.56;5033873;28;20037;-91
2023/09/24 00:21:03;;;;;;;0.15;0.15;;;;;;;21.88;71.53;100887.09;5033761;28;20591;-91
2023/09/24 00:23:29;;;;;;;0.10;0.10;;;;;;;21.99;70.98;100899.28;5033355;28;20407;-90
2023/09/24 00:25:58;;;;;;;0.10;0.10;;;;;;;21.91;71.06;100891.25;5033521;28;20025;-91
2023/09/24 00:28:24;;;;;;;0.20;0.20;;;;;;;21.91;71.33;100902.63;5017120;28;20025;-89
2023/09/24 00:30:51;;;;;;;0.10;0.10;;;;;;;22.00;71.22;100912.31;5050168;28;20040;-91
2023/09/24 00:33:17;;;;;;;0.10;0.10;;;;;;;21.94;71.24;100902.34;5016781;28;20028;-90
2023/09/24 00:35:43;;;;;;;0.15;0.15;;;;;;;21.98;71.01;100898.44;5050173;28;20033;-90
2023/09/24 00:38:08;;;;;;;0.10;0.10;;;;;;;22.00;70.31;100893.88;5016927;28;20036;-91
2023/09/24 00:40:34;;;;;;;0.10;0.10;;;;;;;21.83;70.78;100889.34;5016670;28;20020;-90
2023/09/24 00:42:59;;;;;;;0.10;0.10;;;;;;;22.00;70.68;100901.75;5033505;28;20022;-90
2023/09/24 00:45:25;;;;;;;0.20;0.20;;;;;;;22.05;70.22;100915.34;5033636;28;20029;-90
2023/09/24 00:47:52;;;;;;;0.10;0.10;;;;;;;22.01;70.35;100916.59;5033612;28;20032;-90
2023/09/24 00:50:17;;;;;;;0.13;0.13;;;;;;;21.99;70.73;100913.28;5033477;28;20040;-90
2023/09/24 00:52:43;;;;;;;0.20;0.20;;;;;;;21.95;70.62;100909.28;5033370;28;20025;-89
2023/09/24 00:55:10;;;;;;;0.20;0.20;;;;;;;21.81;70.87;100907.06;5033224;28;20051;-91
2023/09/24 00:57:35;;;;;;;0.10;0.10;;;;;;;21.79;70.98;100909.03;5033176;28;20025;-91
2023/09/24 01:00:08;;;;;;;0.10;0.10;;;;;;;21.77;71.30;100908.34;5033423;28;20029;-90
2023/09/24 01:02:34;;;;;;;0.10;0.10;;;;;;;21.71;71.17;100898.34;5034109;28;20048;-92
2023/09/24 01:05:00;;;;;;;0.20;0.20;;;;;;;21.72;71.13;100897.38;5033109;28;20074;-90
2023/09/24 01:07:27;;;;;;;0.20;0.20;;;;;;;21.77;70.87;100901.25;5029755;28;20466;-91
2023/09/24 01:09:53;;;;;;;0.10;0.10;;;;;;;21.84;70.35;100906.81;5013198;28;20056;-89
2023/09/24 01:12:22;;;;;;;0.20;0.20;;;;;;;21.81;70.51;100901.81;5029855;28;20025;-92
2023/09/24 01:14:48;;;;;;;0.10;0.10;;;;;;;21.84;71.08;100896.28;5029938;28;20021;-91
2023/09/24 01:17:14;;;;;;;0.10;0.10;;;;;;;21.84;70.42;100901.53;5029916;28;20030;-91
2023/09/24 01:19:40;;;;;;;0.20;0.20;;;;;;;21.78;70.13;100883.66;5029822;28;20034;-90
2023/09/24 01:22:06;;;;;;;0.20;0.20;;;;;;;21.70;70.81;100900.16;5029917;28;20033;-90
2023/09/24 01:24:31;;;;;;;0.20;0.20;;;;;;;21.74;70.73;100892.81;5029608;28;20033;-91
2023/09/24 01:26:57;;;;;;;0.20;0.20;;;;;;;21.75;70.26;100886.59;5013339;28;20028;-92
2023/09/24 01:29:23;;;;;;;0.20;0.20;;;;;;;21.63;70.34;100888.53;5029436;28;20052;-90
2023/09/24 01:31:49;;;;;;;0.17;0.17;;;;;;;21.58;70.89;100898.66;5029620;28;20022;-92
2023/09/24 01:34:15;;;;;;;0.10;0.10;;;;;;;21.68;70.46;100896.84;5029635;28;20033;-91
2023/09/24 01:36:41;;;;;;;0.20;0.20;;;;;;;21.63;70.55;100895.56;5029516;28;20399;-90
2023/09/24 01:39:06;;;;;;;0.20;0.20;;;;;;;21.69;70.54;100916.09;5029694;28;20029;-91
2023/09/24 01:41:32;;;;;;;0.10;0.10;;;;;;;21.36;71.00;100880.50;5030123;28;20034;-91
2023/09/24 01:43:59;;;;;;;0.20;0.20;;;;;;;21.42;71.30;100899.19;5030542;28;20029;-89
2023/09/24 01:46:24;;;;;;;0.13;0.13;;;;;;;21.40;71.11;100908.19;5033265;28;20414;-90
2023/09/24 01:48:51;;;;;;;0.20;0.20;;;;;;;21.41;71.23;100923.84;5016615;28;20030;-91
2023/09/24 01:51:16;;;;;;;0.20;0.20;;;;;;;21.31;71.59;100946.69;5016657;28;20491;-90
2023/09/24 01:53:42;;;;;;;0.10;0.10;;;;;;;21.17;72.11;100961.06;5049694;28;20030;-91
2023/09/24 01:56:08;;;;;;;0.20;0.20;;;;;;;21.00;73.15;100974.00;5016336;28;20415;-92
2023/09/24 01:58:35;;;;;;;0.10;0.10;;;;;;;20.82;73.47;100985.16;5032605;28;20029;-90
2023/09/24 02:01:02;;;;;;;0.20;0.20;;;;;;;20.89;73.27;100978.41;5033092;28;20033;-92
2023/09/24 02:03:28;;;;;;;0.10;0.10;;;;;;;20.91;72.67;100987.00;5032937;28;20036;-88
2023/09/24 02:05:53;;;;;;;0.10;0.10;;;;;;;20.81;73.56;101006.31;5032628;28;20053;-92
2023/09/24 02:08:19;;;;;;;0.20;0.20;;;;;;;20.73;72.72;100985.94;5032741;28;20040;-91
2023/09/24 02:10:45;;;;;;;0.20;0.20;;;;;;;20.74;73.47;101000.75;5032469;28;20036;-91
2023/09/24 02:13:12;;;;;;;0.20;0.20;;;;;;;20.69;73.19;100995.06;5032760;28;20026;-90
2023/09/24 02:15:43;;;;;;;0.10;0.10;;;;;;;20.80;73.05;101002.88;5049052;28;20048;-91
2023/09/24 02:18:09;;;;;;;0.20;0.20;;;;;;;20.81;72.60;101012.41;5032416;28;20025;-90
2023/09/24 02:20:35;;;;;;;0.10;0.10;;;;;;;20.87;72.54;101000.56;5015922;28;20149;-91
2023/09/24 02:23:04;;;;;;;0.20;0.20;;;;;;;20.83;72.47;100994.69;5032477;28;20487;-90
2023/09/24 02:25:31;;;;;;;0.20;0.20;;;;;;;20.85;72.09;101003.31;5032409;28;20040;-91
2023/09/24 02:27:57;;;;;;;0.10;0.10;;;;;;;20.85;72.42;101013.84;5032154;28;20069;-90
2023/09/24 02:30:24;;;;;;;0.10;0.10;;;;;;;20.86;72.37;101014.66;5015681;28;20029;-91
2023/09/24 02:32:49;;;;;;;0.20;0.20;;;;;;;20.91;71.96;101015.91;5032244;28;20036;-91
2023/09/24 02:35:15;;;;;;;0.20;0.20;;;;;;;20.86;72.13;101020.75;5048389;28;20025;-90
2023/09/24 02:37:45;;;;;;;0.10;0.10;;;;;;;20.61;72.45;100993.09;5015708;28;20037;-90
2023/09/24 02:40:17;;;;;;;0.20;0.20;;;;;;;21.02;72.09;101019.41;5015740;28;20381;-90
2023/09/24 02:42:43;;;;;;;0.20;0.20;;;;;;;20.79;72.45;101011.72;5032147;28;20025;-90
2023/09/24 02:45:10;;;;;;;0.10;0.10;;;;;;;20.91;72.18;101017.72;5015415;28;20033;-89
2023/09/24 02:47:38;;;;;;;0.20;0.20;;;;;;;20.92;71.74;101024.66;5032152;28;20044;-91
2023/09/24 02:50:13;;;;;;;0.10;0.10;;;;;;;20.89;72.01;101032.81;5014736;28;20033;-90
2023/09/24 02:52:45;;;;;;;0.20;0.20;;;;;;;20.91;71.89;101029.06;5031966;28;20074;-89
2023/09/24 02:55:12;;;;;;;0.10;0.10;;;;;;;20.86;72.03;101010.25;5015046;28;20487;-89
2023/09/24 02:57:38;;;;;;;0.20;0.20;;;;;;;20.86;71.92;101002.34;5015527;28;20087;-90
2023/09/24 03:00:21;;;;;;;0.10;0.10;;;;;;;20.90;71.75;101000.28;5015332;28;20453;-90
2023/09/24 03:02:47;;;;;;;0.10;0.10;;;;;;;20.98;71.41;100989.09;5016806;28;20029;-90
2023/09/24 03:05:19;;;;;;;0.10;0.10;;;;;;;20.92;71.54;100999.16;5031419;28;20108;-91
2023/09/24 03:07:45;;;;;;;0.10;0.10;;;;;;;20.99;71.26;101003.91;5015612;28;20045;-91
2023/09/24 03:10:13;;;;;;;0.10;0.10;;;;;;;20.94;71.62;100996.41;5031539;28;20025;-90
2023/09/24 03:12:41;;;;;;;0.10;0.10;;;;;;;20.85;71.56;100998.06;5031493;28;20526;-89
2023/09/24 03:15:10;;;;;;;0.20;0.20;;;;;;;20.82;71.36;100992.22;5031460;28;20053;-89
2023/09/24 03:17:54;;;;;;;0.10;0.10;;;;;;;20.82;71.24;100998.31;5031533;28;20399;-91
2023/09/24 03:20:20;;;;;;;0.10;0.10;;;;;;;20.84;71.34;100991.13;5045240;28;20036;-90
2023/09/24 03:22:50;;;;;;;0.10;0.10;;;;;;;20.83;70.76;100963.16;5031354;28;20060;-90
2023/09/24 03:25:19;;;;;;;0.10;0.10;;;;;;;21.01;70.62;100979.13;5014585;28;20025;-90
2023/09/24 03:27:48;;;;;;;0.10;0.10;;;;;;;20.99;70.64;100983.69;5031155;28;20407;-90
2023/09/24 03:30:14;;;;;;;0.10;0.10;;;;;;;20.86;70.75;100994.47;5047174;28;20036;-91
2023/09/24 03:32:40;;;;;;;0.10;0.10;;;;;;;20.87;71.17;101011.91;5031042;28;20022;-90
2023/09/24 03:35:09;;;;;;;0.10;0.10;;;;;;;20.79;71.13;101009.09;5031150;28;20033;-91
2023/09/24 03:37:37;;;;;;;0.20;0.20;;;;;;;20.75;71.49;101031.38;5014891;28;20025;-90
2023/09/24 03:40:22;;;;;;;0.20;0.20;;;;;;;20.66;71.50;101032.16;5014976;28;20029;-89
2023/09/24 03:42:48;;;;;;;0.20;0.20;;;;;;;20.50;72.21;101044.91;5030855;28;20394;-91
2023/09/24 03:45:15;;;;;;;0.10;0.10;;;;;;;20.65;71.91;101053.28;5031415;28;20100;-91
2023/09/24 03:47:41;;;;;;;0.20;0.20;;;;;;;20.57;71.65;101040.81;5014195;28;20029;-90
2023/09/24 03:50:10;;;;;;;0.13;0.13;;;;;;;20.54;71.96;101030.53;5030795;28;20036;-89
2023/09/24 03:52:37;;;;;;;0.10;0.10;;;;;;;20.41;72.32;101022.81;5030718;28;20590;-89
2023/09/24 03:55:04;;;;;;;0.10;0.10;;;;;;;20.42;72.48;101028.91;5014443;28;20064;-90
2023/09/24 03:57:30;;;;;;;0.10;0.10;;;;;;;20.31;72.32;101001.75;5030674;28;20029;-90
2023/09/24 03:59:56;;;;;;;0.10;0.10;;;;;;;20.43;72.38;101039.31;5014067;28;20124;-91
2023/09/24 04:02:22;;;;;;;0.10;0.10;;;;;;;20.45;72.38;101039.19;5046941;28;20030;-91
2023/09/24 04:04:48;;;;;;;0.10;0.10;;;;;;;20.44;72.11;101040.16;5030626;28;20034;-91
2023/09/24 04:07:15;;;;;;;0.20;0.20;;;;;;;20.45;72.14;101033.94;5013239;28;20167;-90
2023/09/24 04:09:41;;;;;;;0.10;0.10;;;;;;;20.46;72.28;101028.56;5014144;28;20148;-90
2023/09/24 04:12:08;;;;;;;0.10;0.10;;;;;;;20.36;71.92;101011.06;5013900;28;20119;-90
2023/09/24 04:14:33;;;;;;;0.15;0.15;;;;;;;20.39;71.82;101032.63;5030772;28;20033;-89
2023/09/24 04:16:59;;;;;;;0.10;0.10;;;;;;;20.46;72.07;101031.19;5013733;28;20479;-92
2023/09/24 04:19:24;;;;;;;0.20;0.20;;;;;;;20.46;71.87;101035.63;5030350;28;20060;-89
2023/09/24 04:21:51;;;;;;;0.10;0.10;;;;;;;20.23;72.56;101026.97;5029918;28;20060;-90
2023/09/24 04:24:18;;;;;;;0.20;0.20;;;;;;;20.27;72.69;101039.75;5030565;28;20029;-90
2023/09/24 04:26:45;;;;;;;0.20;0.20;;;;;;;20.20;72.61;101043.84;5030363;28;20096;-90
2023/09/24 04:29:11;;;;;;;0.10;0.10;;;;;;;20.29;72.68;101055.38;5030398;28;20026;-91
2023/09/24 04:31:37;;;;;;;0.10;0.10;;;;;;;20.17;73.00;101054.63;5030108;28;20142;-91
2023/09/24 04:34:02;;;;;;;0.10;0.10;;;;;;;20.13;72.71;101047.94;5013515;28;20033;-90
2023/09/24 04:36:28;;;;;;;0.13;0.13;;;;;;;20.18;72.46;101052.81;5030027;28;20021;-90
2023/09/24 04:38:53;;;;;;;0.20;0.20;;;;;;;20.17;72.81;101049.34;5030317;28;20025;-91
2023/09/24 04:41:20;;;;;;;0.10;0.10;;;;;;;20.13;72.92;101047.94;5030310;28;20029;-90
2023/09/24 04:43:47;;;;;;;0.10;0.10;;;;;;;20.20;72.40;101049.09;5030521;28;20055;-90
2023/09/24 04:46:13;;;;;;;0.10;0.10;;;;;;;20.23;72.44;101048.84;5029822;28;20541;-90
2023/09/24 04:48:38;;;;;;;0.10;0.10;;;;;;;20.19;72.48;101049.22;5030274;28;20033;-90
2023/09/24 04:51:04;;;;;;;0.10;0.10;;;;;;;20.27;72.23;101049.44;5013589;28;20033;-90
2023/09/24 04:53:30;;;;;;;0.10;0.10;;;;;;;20.22;72.53;101041.09;5013762;28;20075;-91
2023/09/24 04:55:56;;;;;;;0.10;0.10;;;;;;;20.17;71.99;101043.28;5030187;28;20033;-92
2023/09/24 04:58:22;;;;;;;0.10;0.10;;;;;;;20.30;71.87;101049.16;5030216;28;20026;-90
2023/09/24 05:00:48;;;;;;;0.10;0.10;;;;;;;20.33;71.58;101051.53;5013117;28;20025;-92
2023/09/24 05:03:13;;;;;;;0.10;0.10;;;;;;;20.16;71.65;101026.69;5029456;28;20029;-90
2023/09/24 05:05:42;;;;;;;0.10;0.10;;;;;;;20.25;71.61;101041.66;5032038;28;20033;-91
2023/09/24 05:08:09;;;;;;;0.10;0.10;;;;;;;20.18;72.07;101050.19;5051053;28;20029;-91
2023/09/24 05:10:36;;;;;;;0.10;0.10;;;;;;;20.27;71.51;101055.50;5033166;28;20554;-90
2023/09/24 05:13:03;;;;;;;0.20;0.20;;;;;;;20.29;71.20;101053.59;5050131;28;20025;-91
2023/09/24 05:15:29;;;;;;;0.10;0.10;;;;;;;20.35;71.22;101062.75;5049458;28;20029;-91
2023/09/24 05:17:55;;;;;;;0.20;0.20;;;;;;;20.32;71.15;101074.34;5034292;28;20079;-90
2023/09/24 05:20:21;;;;;;;0.20;0.20;;;;;;;20.31;70.54;101066.59;5020555;28;20028;-90
2023/09/24 05:22:46;;;;;;;0.20;0.20;;;;;;;20.28;70.84;101062.44;5036869;28;20056;-93
2023/09/24 05:25:12;;;;;;;0.20;0.20;;;;;;;20.32;71.28;101060.38;5036725;28;20021;-91
2023/09/24 05:27:37;;;;;;;0.20;0.20;;;;;;;20.31;70.79;101064.81;5020365;28;20056;-92
2023/09/24 05:30:04;;;;;;;0.20;0.20;;;;;;;20.24;70.93;101066.25;5036423;28;20037;-91
2023/09/24 05:32:32;;;;;;;0.20;0.20;;;;;;;20.33;70.92;101070.75;5020542;28;20025;-91
2023/09/24 05:34:57;;;;;;;0.10;0.10;;;;;;;20.38;70.64;101066.94;5020357;28;20039;-90
2023/09/24 05:37:23;;;;;;;0.30;0.20;;;;;;;20.37;70.81;101070.53;5054392;28;20029;-92
2023/09/24 05:39:48;;;;;;;0.10;0.10;;;;;;;20.39;70.20;101058.09;5036729;28;20033;-90
2023/09/24 05:42:14;;;;;;;0.20;0.20;;;;;;;20.46;70.56;101067.16;5020044;28;20029;-91
2023/09/24 05:44:39;;;;;;;0.20;0.20;;;;;;;20.44;70.36;101054.13;5019704;28;20036;-91
2023/09/24 05:47:07;;;;;;;0.20;0.20;;;;;;;20.60;70.05;101061.56;5036495;28;20025;-91
2023/09/24 05:49:32;;;;;;;0.20;0.20;;;;;;;20.65;69.50;101066.44;5036256;28;20430;-91
2023/09/24 05:51:58;;;;;;;0.15;0.15;;;;;;;20.73;69.45;101085.03;5036266;28;20187;-92
2023/09/24 05:54:23;;;;;;;0.20;0.20;;;;;;;20.82;68.40;101090.34;5019952;28;20494;-90
2023/09/24 05:56:49;;;;;;;0.20;0.20;;;;;;;20.75;68.59;101081.31;5019854;28;20029;-91
2023/09/24 05:59:15;;;;;;;0.20;0.20;;;;;;;20.77;68.19;101086.44;5036090;28;20033;-91
2023/09/24 06:01:42;;;;;;;0.20;0.20;;;;;;;20.79;68.22;101076.63;5036305;28;20494;-93
2023/09/24 06:04:07;;;;;;;0.20;0.20;;;;;;;20.86;67.80;101081.25;5054047;28;20028;-91
2023/09/24 06:06:33;;;;;;;0.20;0.20;;;;;;;20.88;67.77;101081.94;5036082;28;20064;-90
2023/09/24 06:08:58;;;;;;;0.10;0.10;;;;;;;20.86;67.95;101089.13;5036190;28;20028;-91
2023/09/24 06:11:24;;;;;;;0.10;0.10;;;;;;;20.98;67.37;101096.94;5035864;28;20135;-91
2023/09/24 06:13:49;;;;;;;0.20;0.20;;;;;;;20.95;67.17;101065.66;5035783;28;20487;-91
2023/09/24 06:16:15;;;;;;;0.20;0.20;;;;;;;21.15;66.77;101094.53;5036092;28;20060;-92
2023/09/24 06:18:40;;;;;;;0.20;0.20;;;;;;;21.22;66.44;101094.81;5035845;28;20055;-92
2023/09/24 06:21:06;;;;;;;0.20;0.20;;;;;;;21.35;66.52;101092.84;5035982;28;20422;-91
2023/09/24 06:23:31;;;;;;;0.20;0.20;;;;;;;21.42;66.63;101098.38;5036035;28;20115;-92
2023/09/24 06:25:57;;;;;;;0.20;0.20;;;;;;;21.38;65.88;101095.19;5035721;28;20025;-90
2023/09/24 06:28:26;;;;;;;0.13;0.13;;;;;;;21.40;65.52;101077.47;5035445;28;20056;-92
2023/09/24 06:31:02;;;;;;;0.17;0.17;;;;;;;21.59;64.99;101086.38;5034779;28;20037;-90
2023/09/24 06:33:28;;;;;;;0.20;0.20;;;;;;;21.67;65.41;101102.34;5019351;28;20075;-91
2023/09/24 06:35:54;;;;;;;0.20;0.20;;;;;;;21.86;64.80;101105.03;5019281;28;20021;-91
2023/09/24 06:38:19;;;;;;;0.20;0.20;;;;;;;21.93;64.13;101116.69;5035892;28;20505;-91
2023/09/24 06:40:45;;;;;;;0.20;0.20;;;;;;;22.07;63.50;101122.53;5019081;28;20040;-91
2023/09/24 06:43:10;;;;;;;0.20;0.20;;;;;;;22.13;62.86;101122.00;5035325;28;20130;-91
2023/09/24 06:45:36;;;;;;;0.17;0.17;;;;;;;22.20;63.04;101125.75;5035387;28;20036;-91
2023/09/24 06:48:03;;;;;;;0.20;0.20;;;;;;;22.34;62.85;101125.34;5035475;28;20068;-89
2023/09/24 06:50:28;;;;;;;0.20;0.20;;;;;;;22.48;62.32;101122.28;5035806;28;20086;-91
2023/09/24 06:52:54;;;;;;;0.20;0.20;;;;;;;22.66;61.59;101124.19;5018929;28;20028;-90
2023/09/24 06:55:19;;;;;;;0.20;0.20;;;;;;;22.70;61.44;101113.22;5035305;28;20028;-93
2023/09/24 06:57:45;;;;;;;0.20;0.20;;;;;;;22.69;61.54;101123.91;5034679;28;20029;-92
2023/09/24 07:00:11;;;;;;;0.20;0.20;;;;;;;22.87;61.03;101112.53;5034863;28;20040;-90
2023/09/24 07:02:37;;;;;;;0.20;0.20;;;;;;;22.97;60.75;101107.22;5034979;28;20021;-90
2023/09/24 07:05:04;;;;;;;0.20;0.20;;;;;;;23.01;60.32;101113.03;5035214;28;20033;-92
2023/09/24 07:07:30;;;;;;;0.20;0.20;;;;;;;23.09;60.37;101113.16;5035133;28;20487;-90
2023/09/24 07:09:55;;;;;;;0.10;0.10;;;;;;;23.24;59.98;101108.25;5034804;28;20029;-91
2023/09/24 07:12:22;;;;;;;0.20;0.20;;;;;;;23.32;59.51;101111.00;5034449;28;20029;-91
2023/09/24 07:14:47;;;;;;;0.20;0.20;;;;;;;23.45;59.54;101100.91;5018265;28;20086;-93
2023/09/24 07:17:15;;;;;;;0.10;0.10;;;;;;;23.54;58.69;101102.69;5018167;28;20029;-92
2023/09/24 07:19:40;;;;;;;0.20;0.20;;;;;;;23.54;58.37;101100.03;5034775;28;20053;-92
2023/09/24 07:22:06;;;;;;;0.10;0.10;;;;;;;23.68;58.67;101099.56;5018452;28;20071;-93
2023/09/24 07:24:31;;;;;;;0.20;0.20;;;;;;;23.69;58.20;101093.28;5018135;28;20051;-91
2023/09/24 07:27:02;;;;;;;0.20;0.20;;;;;;;23.83;57.86;101104.34;5034025;28;20486;-92
2023/09/24 07:29:28;;;;;;;0.10;0.10;;;;;;;23.95;57.29;101103.13;5034298;28;20039;-91
2023/09/24 07:31:54;;;;;;;0.13;0.13;;;;;;;24.12;57.82;101096.22;5034645;28;20025;-92
2023/09/24 07:34:20;;;;;;;0.20;0.20;;;;;;;24.25;57.16;101105.41;5034158;28;20040;-92
2023/09/24 07:36:45;;;;;;;0.10;0.10;;;;;;;24.31;56.65;101104.00;5034758;28;20048;-91
2023/09/24 07:39:11;;;;;;;0.15;0.15;;;;;;;24.28;56.25;101110.38;5050507;28;20495;-91
2023/09/24 07:41:37;;;;;;;0.20;0.20;;;;;;;24.28;56.81;101120.13;5050706;28;20110;-90
2023/09/24 07:44:02;;;;;;;0.10;0.10;;;;;;;24.31;56.10;101102.19;5017718;28;20025;-91
2023/09/24 07:46:28;;;;;;;0.20;0.20;;;;;;;24.33;56.43;101095.91;5034558;28;20104;-91
2023/09/24 07:48:53;;;;;;;0.10;0.10;;;;;;;24.30;57.13;101097.84;5034425;28;20116;-92
2023/09/24 07:51:19;;;;;;;0.20;0.20;;;;;;;24.40;56.05;101099.63;5034296;28;20040;-91
2023/09/24 07:53:45;;;;;;;0.10;0.10;;;;;;;24.35;56.53;101104.53;5017425;28;20020;-90
2023/09/24 07:56:11;;;;;;;0.20;0.20;;;;;;;24.43;56.00;101101.94;5017597;28;20036;-93
2023/09/24 07:58:38;;;;;;;0.20;0.20;;;;;;;24.39;56.54;101101.44;5017667;28;20037;-90
2023/09/24 08:01:06;;;;;;;0.20;0.20;;;;;;;24.46;56.15;101107.75;5050654;28;20131;-91
2023/09/24 08:03:34;;;;;;;0.10;0.10;;;;;;;24.48;56.75;101107.59;5050189;28;20025;-91
2023/09/24 08:06:00;;;;;;;0.10;0.10;;;;;;;24.69;56.69;101097.53;5030201;28;20042;-92
2023/09/24 08:08:26;;;;;;;0.10;0.10;;;;;;;24.56;56.70;101102.38;5013879;28;20040;-91
2023/09/24 08:10:53;;;;;;;0.17;0.17;;;;;;;24.65;56.92;101101.44;5030292;28;20523;-92
2023/09/24 08:13:19;;;;;;;0.20;0.20;;;;;;;24.79;56.42;101108.00;5030505;28;20022;-92
2023/09/24 08:15:46;;;;;;;0.20;0.20;;;;;;;24.89;55.81;101104.25;5013847;28;20033;-90
2023/09/24 08:18:12;;;;;;;0.20;0.20;;;;;;;24.92;56.39;101097.81;5030263;28;20025;-91
2023/09/24 08:20:39;;;;;;;0.10;0.10;;;;;;;25.09;55.75;101104.91;5030153;28;20029;-91
2023/09/24 08:23:04;;;;;;;0.20;0.20;;;;;;;25.03;55.70;101099.41;5030144;28;20036;-91
2023/09/24 08:25:30;;;;;;;0.20;0.20;;;;;;;24.98;56.12;101106.97;5030187;28;20025;-91
2023/09/24 08:27:56;;;;;;;0.20;0.20;;;;;;;25.07;55.45;101095.44;5030427;28;20095;-91
2023/09/24 08:30:22;;;;;;;0.20;0.20;;;;;;;25.24;55.41;101086.59;5013725;28;20030;-91
2023/09/24 08:32:47;;;;;;;0.10;0.10;;;;;;;25.39;55.55;101086.81;5030427;28;20041;-91
2023/09/24 08:35:13;;;;;;;0.10;0.10;;;;;;;25.43;55.16;101085.50;5030077;28;20037;-91
2023/09/24 08:37:38;;;;;;;0.20;0.20;;;;;;;25.46;54.36;101091.31;5030191;28;20493;-92
2023/09/24 08:40:04;;;;;;;0.20;0.20;;;;;;;25.52;55.04;101099.59;5030283;28;20029;-92
2023/09/24 08:42:30;;;;;;;0.20;0.20;;;;;;;25.67;54.83;101098.84;5030024;28;20487;-91
2023/09/24 08:45:14;;;;;;;0.20;0.20;;;;;;;25.67;54.06;101098.00;5030296;28;20079;-91
2023/09/24 08:47:42;;;;;;;0.20;0.20;;;;;;;25.70;54.44;101087.94;5013450;28;20029;-90
2023/09/24 08:50:08;;;;;;;0.20;0.20;;;;;;;25.74;54.06;101086.59;5030152;28;20056;-92
2023/09/24 08:52:35;;;;;;;0.10;0.10;;;;;;;25.71;54.23;101075.53;5013727;28;20033;-93
2023/09/24 08:55:00;;;;;;;0.20;0.20;;;;;;;25.85;54.43;101087.28;5050583;28;20029;-90
2023/09/24 08:57:26;;;;;;;0.20;0.20;;;;;;;25.95;54.57;101090.63;5017534;28;20033;-93
2023/09/24 08:59:51;;;;;;;0.20;0.20;;;;;;;25.92;54.52;101080.34;5033911;28;20061;-91
2023/09/24 09:02:17;;;;;;;0.20;0.20;;;;;;;26.12;53.67;101087.00;5033890;28;20029;-92
2023/09/24 09:04:52;;;;;;;0.22;0.22;;;;;;;26.02;53.93;101049.22;5017107;28;20125;-91
2023/09/24 09:07:18;;;;;;;0.10;0.10;;;;;;;26.21;53.89;101069.28;5033546;28;20106;-91
2023/09/24 09:09:56;;;;;;;0.10;0.10;;;;;;;26.18;53.77;101070.44;5033453;28;20037;-92
2023/09/24 09:12:22;;;;;;;0.20;0.20;;;;;;;26.14;54.06;101079.69;5017666;28;20053;-93
2023/09/24 09:14:48;;;;;;;0.20;0.20;;;;;;;26.17;54.17;101082.03;5033947;28;20060;-91
2023/09/24 09:17:14;;;;;;;0.20;0.20;;;;;;;26.23;54.32;101086.66;5050029;28;20033;-91
2023/09/24 09:20:06;;;;;;;0.20;0.20;;;;;;;26.26;54.24;101080.22;5017165;28;20056;-92
2023/09/24 09:22:35;;;;;;;0.20;0.20;;;;;;;26.23;54.27;101073.41;5030859;28;20187;-92
2023/09/24 09:25:04;;;;;;;0.20;0.20;;;;;;;26.17;55.14;101055.53;5033659;28;20057;-92
2023/09/24 09:27:42;;;;;;;0.20;0.20;;;;;;;26.26;54.49;101074.91;5050200;28;20144;-91
2023/09/24 09:30:17;;;;;;;0.20;0.20;;;;;;;26.29;54.79;101074.56;5033469;28;20492;-91
2023/09/24 09:32:44;;;;;;;0.20;0.20;;;;;;;26.33;54.85;101075.88;5033574;28;20036;-91
2023/09/24 09:35:10;;;;;;;0.20;0.20;;;;;;;26.33;54.22;101089.16;5016801;28;20035;-92
2023/09/24 09:37:39;;;;;;;0.20;0.20;;;;;;;26.20;54.20;101065.78;5033331;28;20030;-93
2023/09/24 09:40:09;;;;;;;0.20;0.20;;;;;;;26.25;54.39;101073.22;5016748;28;20025;-93
2023/09/24 09:42:38;;;;;;;0.20;0.20;;;;;;;26.31;54.49;101068.09;5033405;28;20025;-92
2023/09/24 09:45:08;;;;;;;0.20;0.20;;;;;;;26.39;54.31;101085.88;5049653;28;20021;-91
2023/09/24 09:47:36;;;;;;;0.20;0.20;;;;;;;26.29;54.09;101077.22;5033068;28;20514;-93
2023/09/24 09:50:01;;;;;;;0.20;0.20;;;;;;;26.33;54.06;101088.31;5032836;28;20025;-94
2023/09/24 09:52:36;;;;;;;0.20;0.20;;;;;;;26.44;54.19;101101.28;5016631;28;20388;-92
2023/09/24 09:55:03;;;;;;;0.20;0.20;;;;;;;26.42;53.94;101097.97;5033178;28;20669;-93
2023/09/24 09:57:32;;;;;;;0.20;0.20;;;;;;;26.37;53.79;101079.91;5033127;28;20053;-91
2023/09/24 09:59:59;;;;;;;0.20;0.20;;;;;;;26.39;54.04;101093.00;5032964;28;20029;-93
2023/09/24 10:02:29;;;;;;;0.20;0.20;;;;;;;26.41;54.01;101091.84;5049751;28;20021;-91
2023/09/24 10:04:56;;;;;;;0.20;0.20;;;;;;;26.40;53.65;101078.75;5031528;28;20036;-92
2023/09/24 10:07:21;;;;;;;0.20;0.20;;;;;;;26.46;53.92;101084.22;5032600;28;20136;-91
2023/09/24 10:09:47;;;;;;;0.20;0.20;;;;;;;26.52;53.48;101066.78;5016356;28;20112;-93
2023/09/24 10:12:13;;;;;;;0.20;0.20;;;;;;;26.61;53.67;101080.88;5032990;28;20464;-93
2023/09/24 10:14:39;;;;;;;0.20;0.20;;;;;;;26.56;53.94;101068.94;5032911;28;20030;-94
2023/09/24 10:17:17;;;;;;;0.20;0.20;;;;;;;26.39;54.13;101046.09;5048983;28;20495;-92
2023/09/24 10:19:50;;;;;;;0.10;0.10;;;;;;;26.47;54.10;101080.56;5033581;28;20033;-92
2023/09/24 10:22:26;;;;;;;0.20;0.20;;;;;;;26.35;54.56;101095.13;5032752;28;20029;-92
2023/09/24 10:24:52;;;;;;;0.20;0.20;;;;;;;26.32;54.26;101098.09;5032728;28;20068;-92
2023/09/24 10:27:24;;;;;;;0.20;0.20;;;;;;;26.27;54.74;101095.97;5032867;28;20536;-92
2023/09/24 10:29:51;;;;;;;0.20;0.20;;;;;;;26.16;54.25;101079.56;5032441;28;20021;-92
2023/09/24 10:32:23;;;;;;;0.20;0.20;;;;;;;26.23;54.40;101083.19;5032832;28;20029;-92
2023/09/24 10:34:54;;;;;;;0.10;0.10;;;;;;;26.21;54.64;101093.13;5015643;28;20030;-94
2023/09/24 10:37:28;;;;;;;0.20;0.20;;;;;;;26.24;54.52;101090.16;5032305;28;20029;-92
2023/09/24 10:40:09;;;;;;;0.20;0.20;;;;;;;26.35;54.57;101096.94;5016050;28;20029;-91
2023/09/24 10:42:37;;;;;;;0.20;0.20;;;;;;;26.37;54.75;101094.97;5033433;28;20017;-92
2023/09/24 10:45:06;;;;;;;0.20;0.20;;;;;;;26.39;54.39;101093.00;5015859;28;20071;-92
2023/09/24 10:47:34;;;;;;;0.20;0.20;;;;;;;26.34;54.58;101089.97;5033186;28;20494;-93
2023/09/24 10:50:06;;;;;;;0.20;0.20;;;;;;;26.35;54.92;101081.88;5015493;28;20187;-93
2023/09/24 10:52:51;;;;;;;0.20;0.20;;;;;;;26.34;55.38;101079.38;5048604;28;20477;-92
2023/09/24 10:55:17;;;;;;;0.20;0.20;;;;;;;26.39;55.32;101077.91;5015422;28;20031;-93
2023/09/24 10:57:44;;;;;;;0.20;0.20;;;;;;;26.35;55.05;101068.63;5032071;28;20025;-91
2023/09/24 11:00:15;;;;;;;0.20;0.20;;;;;;;26.36;55.12;101102.09;5031890;28;20032;-93
2023/09/24 11:02:40;;;;;;;0.20;0.20;;;;;;;26.37;55.03;101098.47;5014885;28;20063;-92
2023/09/24 11:05:06;;;;;;;0.20;0.20;;;;;;;26.35;55.25;101075.72;5031762;28;20026;-93
2023/09/24 11:07:32;;;;;;;0.20;0.20;;;;;;;26.26;56.13;101078.41;5031651;28;20053;-91
2023/09/24 11:09:58;;;;;;;0.20;0.20;;;;;;;26.39;56.32;101106.28;5031601;28;20029;-92
2023/09/24 11:12:23;;;;;;;0.20;0.20;;;;;;;26.19;57.54;101088.00;5031825;28;20025;-92
2023/09/24 11:14:56;;;;;;;0.20;0.20;;;;;;;26.14;57.33;101068.28;5031640;28;20491;-92
2023/09/24 11:17:21;;;;;;;0.20;0.20;;;;;;;26.17;58.18;101082.03;5030831;28;20021;-92
2023/09/24 11:19:48;;;;;;;0.20;0.20;;;;;;;26.17;58.10;101079.38;5031401;28;20506;-92
2023/09/24 11:22:18;;;;;;;0.20;0.20;;;;;;;26.22;57.66;101060.31;5015074;28;20029;-94
2023/09/24 11:24:43;;;;;;;0.20;0.20;;;;;;;26.07;57.35;101059.34;5014515;28;20049;-92